Terminal Aerodrome Forecast
Issued by NWS Sterling, VA

Current Version | Previous Version | Graphics & Text | Print | Product List | Glossary On
Versions: 1 2 3 4 5 6 7 8 9 10 11 12 13 14 15 16 17 18 19 20 21 22 23
294
FTUS41 KLWX 221728
TAFDCA
TAF
KDCA 221728Z 2218/2318 22008KT P6SM SCT050 BKN200
     FM230100 23005KT P6SM BKN250
     FM231300 29005KT P6SM SCT150
     FM231700 29006KT P6SM BKN060=

USA.gov is the U.S. government's official web portal to all federal, state and local government web resources and services.